Time;durP1;ratioP1;P1;durP2;ratioP2;P2;SDS_P1;SDS_P2;PMS_P1;PMS_P2;Temp;Humidity;BMP_temperature;BMP_pressure;BME280_temperature;BME280_humidity;BME280_pressure;Samples;Min_cycle;Max_cycle;Signal;HPM_P1;HPM_P2
2023/12/21 00:00:36;;;;;;;7.57;1.10;;;;;;;;;;4969948;28;20304;-49
2023/12/21 00:03:04;;;;;;;6.20;1.40;;;;;;;;;;4985215;28;20046;-49
2023/12/21 00:05:32;;;;;;;8.53;1.20;;;;;;;;;;4965902;28;20092;-48
2023/12/21 00:08:01;;;;;;;12.85;1.30;;;;;;;;;;4973409;28;20087;-47
2023/12/21 00:10:29;;;;;;;4.97;1.02;;;;;;;;;;4957911;28;20768;-49
2023/12/21 00:12:57;;;;;;;7.10;0.98;;;;;;;;;;4975625;28;20432;-47
2023/12/21 00:15:25;;;;;;;6.05;1.13;;;;;;;;;;4966371;28;20049;-52
2023/12/21 00:17:53;;;;;;;5.17;1.00;;;;;;;;;;4957836;28;20045;-48
2023/12/21 00:20:21;;;;;;;8.45;1.70;;;;;;;;;;4962244;28;20045;-48
2023/12/21 00:22:49;;;;;;;7.90;1.30;;;;;;;;;;4973338;28;20046;-51
2023/12/21 00:25:19;;;;;;;7.40;1.20;;;;;;;;;;4951521;28;20727;-50
2023/12/21 00:27:46;;;;;;;6.63;0.82;;;;;;;;;;4970228;28;20072;-46
2023/12/21 00:30:15;;;;;;;6.00;1.23;;;;;;;;;;4951590;28;20176;-47
2023/12/21 00:32:43;;;;;;;7.63;1.30;;;;;;;;;;4978252;28;20103;-48
2023/12/21 00:35:11;;;;;;;7.22;1.10;;;;;;;;;;4956630;28;20671;-51
2023/12/21 00:37:38;;;;;;;4.35;1.08;;;;;;;;;;4974427;28;20049;-50
2023/12/21 00:40:07;;;;;;;5.13;0.95;;;;;;;;;;4963746;28;20057;-50
2023/12/21 00:42:38;;;;;;;5.77;1.00;;;;;;;;;;4979497;28;20052;-47
2023/12/21 00:45:06;;;;;;;4.68;1.02;;;;;;;;;;4951740;28;20041;-51
2023/12/21 00:47:33;;;;;;;4.25;0.90;;;;;;;;;;4985759;28;20046;-47
2023/12/21 00:50:01;;;;;;;4.63;0.82;;;;;;;;;;4953966;28;20456;-51
2023/12/21 00:52:29;;;;;;;3.88;0.90;;;;;;;;;;4973262;28;20133;-50
2023/12/21 00:55:14;;;;;;;4.70;0.90;;;;;;;;;;4971967;28;20044;-50
2023/12/21 00:57:44;;;;;;;5.40;1.00;;;;;;;;;;4934132;28;20650;-50
2023/12/21 01:00:12;;;;;;;6.90;1.45;;;;;;;;;;4952743;28;20035;-53
2023/12/21 01:02:40;;;;;;;5.28;1.05;;;;;;;;;;4936245;28;20031;-48
2023/12/21 01:05:11;;;;;;;4.53;1.10;;;;;;;;;;4950470;28;20052;-47
2023/12/21 01:07:44;;;;;;;5.77;0.73;;;;;;;;;;4965475;28;20038;-51
2023/12/21 01:10:12;;;;;;;4.45;0.93;;;;;;;;;;4935305;28;20047;-47
2023/12/21 01:12:40;;;;;;;5.80;1.10;;;;;;;;;;4959442;28;20132;-51
2023/12/21 01:15:09;;;;;;;4.60;0.98;;;;;;;;;;4916989;28;20061;-48
2023/12/21 01:17:38;;;;;;;5.60;0.75;;;;;;;;;;4965439;28;20570;-49
2023/12/21 01:20:06;;;;;;;3.93;0.63;;;;;;;;;;4932567;28;20120;-49
2023/12/21 01:22:34;;;;;;;4.10;0.80;;;;;;;;;;4940272;28;20038;-53
2023/12/21 01:25:02;;;;;;;4.10;0.70;;;;;;;;;;4956342;28;20049;-51
2023/12/21 01:27:30;;;;;;;3.67;0.73;;;;;;;;;;4944802;28;20042;-47
2023/12/21 01:29:59;;;;;;;3.17;0.60;;;;;;;;;;4964829;28;20809;-45
2023/12/21 01:32:33;;;;;;;4.70;0.50;;;;;;;;;;4948360;28;20455;-46
2023/12/21 01:35:01;;;;;;;4.18;0.60;;;;;;;;;;4953758;28;20584;-48
2023/12/21 01:37:29;;;;;;;4.15;0.80;;;;;;;;;;4957561;28;20042;-46
2023/12/21 01:39:56;;;;;;;3.88;0.70;;;;;;;;;;4953447;28;20053;-46
2023/12/21 01:42:24;;;;;;;5.25;0.60;;;;;;;;;;4958693;28;20053;-49
2023/12/21 01:44:52;;;;;;;3.87;0.60;;;;;;;;;;4258785;28;10000150;-46
2023/12/21 01:47:20;;;;;;;4.70;0.85;;;;;;;;;;4945023;28;20066;-52
2023/12/21 01:49:49;;;;;;;3.38;0.60;;;;;;;;;;4925425;28;20458;-51
2023/12/21 01:52:20;;;;;;;4.13;0.50;;;;;;;;;;4946362;28;20043;-48
2023/12/21 01:54:47;;;;;;;5.30;0.70;;;;;;;;;;4947627;28;20169;-49
2023/12/21 01:57:15;;;;;;;4.40;0.88;;;;;;;;;;4960780;28;20050;-50
2023/12/21 01:59:43;;;;;;;5.28;0.70;;;;;;;;;;4963382;28;20092;-50
2023/12/21 02:02:11;;;;;;;4.47;0.70;;;;;;;;;;4947158;28;21744;-46
2023/12/21 02:04:39;;;;;;;6.85;1.10;;;;;;;;;;4969836;28;20058;-53
2023/12/21 02:07:08;;;;;;;3.40;0.70;;;;;;;;;;4933001;28;20045;-50
2023/12/21 02:09:36;;;;;;;5.38;0.90;;;;;;;;;;4969375;28;20496;-49
2023/12/21 02:12:04;;;;;;;5.47;1.20;;;;;;;;;;4957520;28;20044;-51
2023/12/21 02:14:32;;;;;;;3.28;0.57;;;;;;;;;;4956899;28;20057;-51
2023/12/21 02:17:02;;;;;;;3.25;0.57;;;;;;;;;;4963553;28;20463;-49
2023/12/21 02:19:30;;;;;;;3.67;0.53;;;;;;;;;;4949114;28;20044;-48
2023/12/21 02:22:00;;;;;;;3.80;0.85;;;;;;;;;;4956801;28;21133;-51
2023/12/21 02:24:31;;;;;;;7.30;1.27;;;;;;;;;;4970532;28;20039;-48
2023/12/21 02:27:00;;;;;;;4.15;0.98;;;;;;;;;;4955311;28;20057;-51
2023/12/21 02:29:28;;;;;;;8.55;1.15;;;;;;;;;;4957156;28;20061;-49
2023/12/21 02:31:55;;;;;;;3.50;0.80;;;;;;;;;;4955865;28;20064;-52
2023/12/21 02:34:23;;;;;;;4.65;0.80;;;;;;;;;;4963023;28;20073;-49
2023/12/21 02:36:51;;;;;;;5.30;1.23;;;;;;;;;;4949487;28;20371;-50
2023/12/21 02:39:19;;;;;;;6.43;1.07;;;;;;;;;;4613763;28;9999971;-49
2023/12/21 02:41:50;;;;;;;8.60;1.30;;;;;;;;;;4959490;28;20111;-49
2023/12/21 02:44:17;;;;;;;6.35;1.13;;;;;;;;;;4930014;28;20049;-50
2023/12/21 02:46:45;;;;;;;6.85;1.50;;;;;;;;;;4967683;28;20048;-47
2023/12/21 02:49:13;;;;;;;5.30;1.03;;;;;;;;;;4979424;28;20123;-49
2023/12/21 02:51:41;;;;;;;5.95;1.75;;;;;;;;;;4975431;28;20044;-47
2023/12/21 02:54:09;;;;;;;5.25;1.10;;;;;;;;;;4969808;28;20492;-51
2023/12/21 02:56:36;;;;;;;5.22;1.33;;;;;;;;;;4967933;28;20116;-49
2023/12/21 02:59:06;;;;;;;15.90;1.45;;;;;;;;;;4972353;28;20579;-49
2023/12/21 03:01:33;;;;;;;6.33;1.27;;;;;;;;;;4977025;28;20034;-49
2023/12/21 03:04:01;;;;;;;7.05;1.67;;;;;;;;;;4969338;28;20042;-49
2023/12/21 03:06:29;;;;;;;5.55;1.20;;;;;;;;;;4984243;28;20096;-51
2023/12/21 03:08:57;;;;;;;5.18;1.55;;;;;;;;;;4967865;28;20482;-47
2023/12/21 03:11:48;;;;;;;6.47;1.38;;;;;;;;;;4975554;28;20030;-48
2023/12/21 03:14:17;;;;;;;8.33;1.40;;;;;;;;;;4972192;28;20508;-48
2023/12/21 03:16:45;;;;;;;7.43;1.75;;;;;;;;;;4990030;28;20046;-51
2023/12/21 03:19:16;;;;;;;6.57;1.48;;;;;;;;;;4960723;28;20509;-50
2023/12/21 03:21:44;;;;;;;8.00;1.15;;;;;;;;;;4977781;28;20484;-48
2023/12/21 03:24:12;;;;;;;9.38;1.95;;;;;;;;;;4978744;28;20053;-50
2023/12/21 03:26:41;;;;;;;6.07;1.30;;;;;;;;;;4983703;28;20042;-48
2023/12/21 03:29:09;;;;;;;4.57;1.20;;;;;;;;;;4957782;28;20390;-47
2023/12/21 03:31:38;;;;;;;8.20;1.30;;;;;;;;;;4950471;28;20780;-48
2023/12/21 03:34:06;;;;;;;5.47;1.45;;;;;;;;;;4978701;28;20041;-48
2023/12/21 03:36:34;;;;;;;6.70;1.33;;;;;;;;;;4988347;28;20050;-48
2023/12/21 03:39:01;;;;;;;4.40;1.37;;;;;;;;;;4995648;28;20109;-49
2023/12/21 03:41:32;;;;;;;6.95;1.13;;;;;;;;;;4974778;28;20556;-54
2023/12/21 03:44:00;;;;;;;9.13;1.90;;;;;;;;;;4983214;28;20045;-48
2023/12/21 03:46:27;;;;;;;6.00;0.98;;;;;;;;;;4975850;28;20049;-50
2023/12/21 03:48:59;;;;;;;3.30;0.90;;;;;;;;;;4973776;28;20038;-52
2023/12/21 03:51:27;;;;;;;6.47;1.63;;;;;;;;;;4986759;28;20139;-52
2023/12/21 03:53:55;;;;;;;7.93;1.10;;;;;;;;;;4977594;28;20065;-48
2023/12/21 03:56:23;;;;;;;5.40;1.40;;;;;;;;;;4970252;28;20115;-48
2023/12/21 03:58:50;;;;;;;7.57;1.20;;;;;;;;;;4974652;28;20034;-47
2023/12/21 04:01:25;;;;;;;6.70;1.00;;;;;;;;;;4975617;28;20489;-48
2023/12/21 04:03:53;;;;;;;8.00;1.40;;;;;;;;;;4971712;28;20124;-49
2023/12/21 04:06:22;;;;;;;4.38;1.10;;;;;;;;;;4985507;28;20045;-52
2023/12/21 04:08:51;;;;;;;6.55;1.38;;;;;;;;;;4979238;28;20046;-49
2023/12/21 04:11:18;;;;;;;3.65;0.82;;;;;;;;;;4961045;28;20038;-50
2023/12/21 04:13:47;;;;;;;8.57;0.90;;;;;;;;;;4983637;28;20112;-49
2023/12/21 04:16:14;;;;;;;6.43;1.03;;;;;;;;;;4980557;28;20042;-50
2023/12/21 04:18:42;;;;;;;3.90;0.80;;;;;;;;;;4950522;28;21088;-49
2023/12/21 04:21:10;;;;;;;3.40;0.70;;;;;;;;;;4962126;28;20048;-49
2023/12/21 04:23:39;;;;;;;3.67;0.77;;;;;;;;;;4976698;28;20044;-48
2023/12/21 04:26:07;;;;;;;3.92;0.70;;;;;;;;;;4956154;28;20033;-48
2023/12/21 04:28:35;;;;;;;7.17;0.60;;;;;;;;;;4961124;28;20037;-51
2023/12/21 04:31:04;;;;;;;5.57;1.08;;;;;;;;;;4967268;28;20103;-49
2023/12/21 04:33:32;;;;;;;6.65;0.70;;;;;;;;;;4967430;28;20048;-49
2023/12/21 04:35:59;;;;;;;5.40;1.60;;;;;;;;;;4965303;28;20132;-48
2023/12/21 04:38:27;;;;;;;5.68;0.95;;;;;;;;;;4621700;28;10001425;-49
2023/12/21 04:40:56;;;;;;;6.23;0.77;;;;;;;;;;4971657;28;20288;-51
2023/12/21 04:43:24;;;;;;;5.57;0.95;;;;;;;;;;4939911;28;20046;-54
2023/12/21 04:45:53;;;;;;;5.05;0.80;;;;;;;;;;4952061;28;20172;-51
2023/12/21 04:48:21;;;;;;;3.88;0.73;;;;;;;;;;4968829;28;20104;-49
2023/12/21 04:50:49;;;;;;;6.25;1.60;;;;;;;;;;4973986;28;20041;-53
2023/12/21 04:53:17;;;;;;;3.93;0.80;;;;;;;;;;4962358;28;20061;-50
2023/12/21 04:55:45;;;;;;;7.57;1.05;;;;;;;;;;4953708;28;20065;-49
2023/12/21 04:58:18;;;;;;;6.28;1.17;;;;;;;;;;4985427;28;20124;-50
2023/12/21 05:00:50;;;;;;;3.50;0.65;;;;;;;;;;4958483;28;20043;-48
2023/12/21 05:03:19;;;;;;;4.78;1.13;;;;;;;;;;4986170;28;20053;-47
2023/12/21 05:05:47;;;;;;;9.60;1.20;;;;;;;;;;4954514;28;20041;-49
2023/12/21 05:08:15;;;;;;;3.80;0.80;;;;;;;;;;4972335;28;20504;-47
2023/12/21 05:10:43;;;;;;;6.85;1.08;;;;;;;;;;4966987;28;20038;-51
2023/12/21 05:13:12;;;;;;;4.78;0.82;;;;;;;;;;4972661;28;20042;-48
2023/12/21 05:15:42;;;;;;;4.95;0.98;;;;;;;;;;4979632;28;20175;-52
2023/12/21 05:18:10;;;;;;;7.37;0.87;;;;;;;;;;4960570;28;20552;-51
2023/12/21 05:20:38;;;;;;;5.38;0.70;;;;;;;;;;4953077;28;20520;-52
2023/12/21 05:23:06;;;;;;;7.95;0.88;;;;;;;;;;4967842;28;20132;-51
2023/12/21 05:25:33;;;;;;;5.68;0.73;;;;;;;;;;4958408;28;20435;-53
2023/12/21 05:28:01;;;;;;;3.90;0.65;;;;;;;;;;4964503;28;20481;-52
2023/12/21 05:30:29;;;;;;;5.93;0.87;;;;;;;;;;4945135;28;20457;-52
2023/12/21 05:32:59;;;;;;;4.53;0.63;;;;;;;;;;4969517;28;20726;-52
2023/12/21 05:35:27;;;;;;;3.95;0.60;;;;;;;;;;4975540;28;20053;-51
2023/12/21 05:37:55;;;;;;;6.95;0.93;;;;;;;;;;4977235;28;20045;-48
2023/12/21 05:40:23;;;;;;;5.30;0.80;;;;;;;;;;4963246;28;20046;-51
2023/12/21 05:42:51;;;;;;;4.83;1.23;;;;;;;;;;4964856;28;20494;-50
2023/12/21 05:45:18;;;;;;;6.70;0.65;;;;;;;;;;4977310;28;20492;-50
2023/12/21 05:47:46;;;;;;;6.85;1.15;;;;;;;;;;4969913;28;20042;-54
2023/12/21 05:50:16;;;;;;;7.22;1.00;;;;;;;;;;4964049;28;20046;-51
2023/12/21 05:52:44;;;;;;;8.48;1.35;;;;;;;;;;4957450;28;20050;-50
2023/12/21 05:55:15;;;;;;;6.50;0.80;;;;;;;;;;4980932;28;20060;-52
2023/12/21 05:57:43;;;;;;;6.45;0.93;;;;;;;;;;4907891;28;20561;-53
2023/12/21 06:00:12;;;;;;;5.40;0.75;;;;;;;;;;4933376;28;20039;-52
2023/12/21 06:02:40;;;;;;;5.85;1.40;;;;;;;;;;4906859;28;20066;-52
2023/12/21 06:05:09;;;;;;;8.13;0.70;;;;;;;;;;4937440;28;20584;-48
2023/12/21 06:07:38;;;;;;;6.70;1.00;;;;;;;;;;4927091;28;20051;-49
2023/12/21 06:10:06;;;;;;;3.72;0.90;;;;;;;;;;4927318;28;20038;-50
2023/12/21 06:12:34;;;;;;;8.50;1.45;;;;;;;;;;4939134;28;24457;-47
2023/12/21 06:15:01;;;;;;;6.40;1.30;;;;;;;;;;4928829;28;20097;-51
2023/12/21 06:17:28;;;;;;;5.63;1.30;;;;;;;;;;4919560;28;20043;-48
2023/12/21 06:19:56;;;;;;;7.43;1.10;;;;;;;;;;4912827;28;20629;-50
2023/12/21 06:22:24;;;;;;;8.43;1.35;;;;;;;;;;4939839;28;20165;-47
2023/12/21 06:24:53;;;;;;;7.55;1.38;;;;;;;;;;4918331;28;20417;-49
2023/12/21 06:27:22;;;;;;;8.35;0.80;;;;;;;;;;4911934;28;20076;-47
2023/12/21 06:29:50;;;;;;;6.07;0.65;;;;;;;;;;4901270;28;20039;-50
2023/12/21 06:32:17;;;;;;;10.63;1.30;;;;;;;;;;4916275;28;20039;-52
2023/12/21 06:34:45;;;;;;;6.63;1.52;;;;;;;;;;4917081;28;20417;-49
2023/12/21 06:37:13;;;;;;;4.78;1.02;;;;;;;;;;4917740;28;20062;-50
2023/12/21 06:39:40;;;;;;;4.68;0.82;;;;;;;;;;4922743;28;20459;-52
2023/12/21 06:42:10;;;;;;;8.88;1.05;;;;;;;;;;4914336;28;20047;-52
2023/12/21 06:44:37;;;;;;;5.17;0.87;;;;;;;;;;4934038;28;20485;-49
2023/12/21 06:47:05;;;;;;;7.72;0.88;;;;;;;;;;4915453;28;20044;-49
2023/12/21 06:49:50;;;;;;;5.13;1.00;;;;;;;;;;4939672;28;20656;-50
2023/12/21 06:52:21;;;;;;;5.18;0.75;;;;;;;;;;4916313;28;20618;-50
2023/12/21 06:54:49;;;;;;;6.63;1.10;;;;;;;;;;4938826;28;20109;-47
2023/12/21 06:57:18;;;;;;;6.27;0.50;;;;;;;;;;4949385;28;20459;-51
2023/12/21 07:00:05;;;;;;;4.95;1.10;;;;;;;;;;4973096;28;20315;-49
2023/12/21 07:02:33;;;;;;;4.18;0.77;;;;;;;;;;4950359;28;20124;-48
2023/12/21 07:05:01;;;;;;;6.65;0.52;;;;;;;;;;4974539;28;20062;-48
2023/12/21 07:07:28;;;;;;;3.50;0.70;;;;;;;;;;4947967;28;22685;-50
2023/12/21 07:09:57;;;;;;;3.77;0.60;;;;;;;;;;4965727;28;20123;-51
2023/12/21 07:12:27;;;;;;;6.15;0.70;;;;;;;;;;4970876;28;20052;-47
2023/12/21 07:14:55;;;;;;;5.22;0.93;;;;;;;;;;4977728;28;20144;-47
2023/12/21 07:17:22;;;;;;;5.28;1.17;;;;;;;;;;4962216;28;20049;-47
2023/12/21 07:19:50;;;;;;;5.07;0.80;;;;;;;;;;4919932;28;20546;-47
2023/12/21 07:22:18;;;;;;;4.60;0.60;;;;;;;;;;4968606;28;20038;-47
2023/12/21 07:24:45;;;;;;;4.70;0.47;;;;;;;;;;4967229;28;20044;-49
2023/12/21 07:27:15;;;;;;;5.78;0.82;;;;;;;;;;4957478;28;20114;-53
2023/12/21 07:29:44;;;;;;;4.55;0.70;;;;;;;;;;4957083;28;20038;-49
2023/12/21 07:32:12;;;;;;;5.60;0.70;;;;;;;;;;4962913;28;20100;-48
2023/12/21 07:34:41;;;;;;;7.17;0.90;;;;;;;;;;4969119;28;20107;-47
2023/12/21 07:37:12;;;;;;;10.48;1.98;;;;;;;;;;4954855;28;20042;-52
2023/12/21 07:39:40;;;;;;;6.60;0.50;;;;;;;;;;4949756;28;20791;-50
2023/12/21 07:42:07;;;;;;;5.25;0.52;;;;;;;;;;4976039;28;20034;-51
2023/12/21 07:44:35;;;;;;;2.95;0.50;;;;;;;;;;4978966;28;20101;-49
2023/12/21 07:47:06;;;;;;;8.40;1.00;;;;;;;;;;4974432;28;20555;-52
2023/12/21 07:49:34;;;;;;;4.95;0.85;;;;;;;;;;4961605;28;20042;-50
2023/12/21 07:52:01;;;;;;;8.45;0.90;;;;;;;;;;4958806;28;20046;-50
2023/12/21 07:54:29;;;;;;;4.95;0.70;;;;;;;;;;4953498;28;20038;-49
2023/12/21 07:56:57;;;;;;;3.20;0.70;;;;;;;;;;4975081;28;20054;-49
2023/12/21 07:59:24;;;;;;;4.70;0.50;;;;;;;;;;4957528;28;20518;-50
2023/12/21 08:01:52;;;;;;;6.63;0.63;;;;;;;;;;4974125;28;20263;-47
2023/12/21 08:04:24;;;;;;;3.65;0.57;;;;;;;;;;4963199;28;20440;-52
2023/12/21 08:06:52;;;;;;;3.08;0.40;;;;;;;;;;4954281;28;20057;-49
2023/12/21 08:09:19;;;;;;;3.08;0.47;;;;;;;;;;4981019;28;20180;-48
2023/12/21 08:11:47;;;;;;;3.47;0.60;;;;;;;;;;4960164;28;20045;-48
2023/12/21 08:14:15;;;;;;;3.80;0.77;;;;;;;;;;4903112;28;20522;-47
2023/12/21 08:16:43;;;;;;;4.00;0.40;;;;;;;;;;4947938;28;20421;-50
2023/12/21 08:19:13;;;;;;;4.20;0.40;;;;;;;;;;4951017;28;20358;-47
2023/12/21 08:21:42;;;;;;;5.47;0.70;;;;;;;;;;4963132;28;20906;-50
2023/12/21 08:24:11;;;;;;;3.57;0.50;;;;;;;;;;4967093;28;20651;-52
2023/12/21 08:26:39;;;;;;;4.30;0.50;;;;;;;;;;4950564;28;20463;-49
2023/12/21 08:29:06;;;;;;;4.70;0.55;;;;;;;;;;4961715;28;20124;-47
2023/12/21 08:31:35;;;;;;;2.40;0.30;;;;;;;;;;4977993;28;20045;-47
2023/12/21 08:34:03;;;;;;;3.90;0.40;;;;;;;;;;4960152;28;20041;-48
2023/12/21 08:36:31;;;;;;;3.43;0.43;;;;;;;;;;4886122;28;20271;-52
2023/12/21 08:39:01;;;;;;;3.60;0.40;;;;;;;;;;4976672;28;20472;-48
2023/12/21 08:41:29;;;;;;;4.95;0.57;;;;;;;;;;4973222;28;20880;-48
2023/12/21 08:43:56;;;;;;;2.17;0.40;;;;;;;;;;4950754;28;20045;-48
2023/12/21 08:46:24;;;;;;;3.97;0.60;;;;;;;;;;4976402;28;20049;-52
2023/12/21 08:48:52;;;;;;;5.43;0.67;;;;;;;;;;4978616;28;20043;-53
2023/12/21 08:51:19;;;;;;;2.88;0.47;;;;;;;;;;4976881;28;20077;-50
2023/12/21 08:53:53;;;;;;;4.30;0.60;;;;;;;;;;4969271;28;20054;-50
2023/12/21 08:56:22;;;;;;;3.80;0.40;;;;;;;;;;4979005;28;20516;-54
2023/12/21 08:58:56;;;;;;;4.88;0.50;;;;;;;;;;4953972;28;20045;-50
2023/12/21 09:01:24;;;;;;;3.20;0.60;;;;;;;;;;4973854;28;20041;-51
2023/12/21 09:03:52;;;;;;;2.95;0.60;;;;;;;;;;4940189;28;20062;-52
2023/12/21 09:06:20;;;;;;;6.47;0.70;;;;;;;;;;4964007;28;20559;-51
2023/12/21 09:08:48;;;;;;;2.75;0.73;;;;;;;;;;4960490;28;20042;-50
2023/12/21 09:11:19;;;;;;;4.05;0.60;;;;;;;;;;4950725;28;20732;-47
2023/12/21 09:13:48;;;;;;;3.93;0.40;;;;;;;;;;4976621;28;20660;-47
2023/12/21 09:16:17;;;;;;;5.78;0.70;;;;;;;;;;4959956;28;20104;-51
2023/12/21 09:18:45;;;;;;;2.75;0.50;;;;;;;;;;4942487;28;20042;-51
2023/12/21 09:21:13;;;;;;;4.28;0.40;;;;;;;;;;4966836;28;20138;-50
2023/12/21 09:23:41;;;;;;;2.58;0.30;;;;;;;;;;4956046;28;20045;-48
2023/12/21 09:26:09;;;;;;;4.30;0.50;;;;;;;;;;4962136;28;20049;-52
2023/12/21 09:28:37;;;;;;;3.30;0.50;;;;;;;;;;4944423;28;20366;-51
2023/12/21 09:31:07;;;;;;;2.95;0.50;;;;;;;;;;4972829;28;20041;-47
2023/12/21 09:33:36;;;;;;;2.97;0.50;;;;;;;;;;4955454;28;20044;-51
2023/12/21 09:36:09;;;;;;;3.25;0.50;;;;;;;;;;4956826;28;20054;-50
2023/12/21 09:38:37;;;;;;;2.17;0.40;;;;;;;;;;4967937;28;20037;-51
2023/12/21 09:41:07;;;;;;;4.22;0.73;;;;;;;;;;4622349;28;10000598;-48
2023/12/21 09:43:34;;;;;;;2.22;0.30;;;;;;;;;;4949670;28;20050;-48
2023/12/21 09:46:02;;;;;;;3.00;0.50;;;;;;;;;;4951541;28;20046;-48
2023/12/21 09:48:32;;;;;;;1.77;0.23;;;;;;;;;;4951003;28;20128;-49
2023/12/21 09:51:04;;;;;;;2.50;0.40;;;;;;;;;;4959207;28;20571;-48
2023/12/21 09:53:33;;;;;;;4.50;0.45;;;;;;;;;;4952007;28;20061;-51
2023/12/21 09:56:02;;;;;;;1.88;0.30;;;;;;;;;;4969319;28;20685;-51
2023/12/21 09:58:32;;;;;;;5.07;0.60;;;;;;;;;;4609039;28;9999949;-51
2023/12/21 10:01:00;;;;;;;1.95;0.40;;;;;;;;;;4935294;28;20058;-51
2023/12/21 10:03:28;;;;;;;1.40;0.20;;;;;;;;;;4931467;28;20038;-52
2023/12/21 10:05:57;;;;;;;2.27;0.40;;;;;;;;;;4946530;28;20091;-52
2023/12/21 10:08:25;;;;;;;3.25;0.40;;;;;;;;;;4936435;28;20042;-48
2023/12/21 10:10:53;;;;;;;2.80;0.40;;;;;;;;;;4946033;28;20041;-49
2023/12/21 10:13:21;;;;;;;2.83;0.50;;;;;;;;;;4942336;28;20409;-51
2023/12/21 10:15:57;;;;;;;5.45;0.80;;;;;;;;;;4951136;28;20041;-50
2023/12/21 10:18:26;;;;;;;2.43;0.30;;;;;;;;;;4929088;28;20054;-48
2023/12/21 10:20:54;;;;;;;6.75;0.60;;;;;;;;;;4937183;28;20068;-47
2023/12/21 10:23:27;;;;;;;3.33;0.40;;;;;;;;;;4944651;28;20389;-48
2023/12/21 10:25:55;;;;;;;4.20;0.70;;;;;;;;;;4955848;28;20046;-49
2023/12/21 10:28:23;;;;;;;2.30;0.55;;;;;;;;;;4934419;28;20132;-51
2023/12/21 10:30:53;;;;;;;4.13;0.60;;;;;;;;;;4947732;28;20038;-51
2023/12/21 10:33:20;;;;;;;4.07;0.30;;;;;;;;;;4942915;28;21150;-49
2023/12/21 10:35:49;;;;;;;4.82;0.50;;;;;;;;;;4963509;28;20453;-48
2023/12/21 10:38:18;;;;;;;3.72;0.55;;;;;;;;;;4954911;28;20057;-52
2023/12/21 10:40:49;;;;;;;3.28;0.68;;;;;;;;;;4961139;28;20519;-52
2023/12/21 10:43:17;;;;;;;4.00;0.50;;;;;;;;;;4948240;28;20038;-51
2023/12/21 10:45:45;;;;;;;3.03;0.40;;;;;;;;;;4949493;28;20049;-47
2023/12/21 10:48:13;;;;;;;2.90;0.40;;;;;;;;;;4961702;28;20050;-48
2023/12/21 10:50:43;;;;;;;3.80;0.50;;;;;;;;;;4940499;28;20683;-54
2023/12/21 10:53:15;;;;;;;5.35;0.80;;;;;;;;;;4967127;28;20057;-53
2023/12/21 10:55:44;;;;;;;5.40;0.50;;;;;;;;;;4942650;28;20066;-50
2023/12/21 10:58:13;;;;;;;3.45;0.75;;;;;;;;;;4969961;28;20491;-51
2023/12/21 11:00:42;;;;;;;4.88;0.40;;;;;;;;;;4935290;28;20034;-49
2023/12/21 11:03:12;;;;;;;4.03;0.30;;;;;;;;;;4958282;28;20037;-49
2023/12/21 11:05:40;;;;;;;4.75;0.50;;;;;;;;;;4951716;28;20052;-49
2023/12/21 11:08:09;;;;;;;4.50;0.50;;;;;;;;;;4963981;28;20038;-49
2023/12/21 11:10:37;;;;;;;3.45;1.05;;;;;;;;;;4951999;28;20053;-50
2023/12/21 11:13:05;;;;;;;3.72;0.47;;;;;;;;;;4949020;28;20770;-47
2023/12/21 11:15:34;;;;;;;4.80;0.70;;;;;;;;;;4948358;28;20096;-51
2023/12/21 11:18:05;;;;;;;3.33;0.43;;;;;;;;;;4936379;28;20037;-52
2023/12/21 11:20:35;;;;;;;4.60;0.30;;;;;;;;;;4936567;28;20644;-52
2023/12/21 11:23:14;;;;;;;3.13;0.30;;;;;;;;;;4953725;28;20046;-51
2023/12/21 11:25:42;;;;;;;4.30;0.40;;;;;;;;;;4938181;28;20516;-49
2023/12/21 11:28:10;;;;;;;3.53;0.40;;;;;;;;;;4952931;28;20048;-48
2023/12/21 11:30:43;;;;;;;6.13;0.60;;;;;;;;;;4951977;28;20038;-50
2023/12/21 11:33:11;;;;;;;3.20;0.40;;;;;;;;;;4937715;28;20050;-52
2023/12/21 11:35:39;;;;;;;3.70;0.60;;;;;;;;;;4944138;28;20045;-51
2023/12/21 11:38:07;;;;;;;2.72;0.70;;;;;;;;;;4956014;28;20152;-51
2023/12/21 11:40:42;;;;;;;2.47;0.40;;;;;;;;;;4953043;28;20038;-49
2023/12/21 11:43:20;;;;;;;5.20;0.60;;;;;;;;;;4934080;28;21095;-48
2023/12/21 11:45:51;;;;;;;4.30;0.83;;;;;;;;;;4964333;28;20038;-51
2023/12/21 11:48:20;;;;;;;4.75;0.80;;;;;;;;;;4940633;28;20448;-47
2023/12/21 11:51:00;;;;;;;3.22;0.43;;;;;;;;;;4942637;28;20258;-53
2023/12/21 11:53:28;;;;;;;3.72;0.50;;;;;;;;;;4941977;28;20038;-51
2023/12/21 11:56:12;;;;;;;5.97;0.90;;;;;;;;;;4947512;28;20046;-49
2023/12/21 11:58:40;;;;;;;2.27;0.23;;;;;;;;;;4960745;28;20136;-49
2023/12/21 12:01:25;;;;;;;4.00;0.60;;;;;;;;;;4262377;28;10000647;-51
2023/12/21 12:03:54;;;;;;;4.25;0.60;;;;;;;;;;4941435;28;21256;-48
2023/12/21 12:06:23;;;;;;;2.95;0.50;;;;;;;;;;4962945;28;20074;-50
2023/12/21 12:08:51;;;;;;;2.67;0.40;;;;;;;;;;4939008;28;20046;-52
2023/12/21 12:11:19;;;;;;;4.80;0.60;;;;;;;;;;4944396;28;20134;-54
2023/12/21 12:13:47;;;;;;;3.10;0.52;;;;;;;;;;4941806;28;20064;-53
2023/12/21 12:16:16;;;;;;;6.40;0.50;;;;;;;;;;4954051;28;20045;-53
2023/12/21 12:18:51;;;;;;;5.00;0.52;;;;;;;;;;4902273;28;20050;-48
2023/12/21 12:21:19;;;;;;;5.20;0.63;;;;;;;;;;4954323;28;20046;-54
2023/12/21 12:23:47;;;;;;;7.72;0.50;;;;;;;;;;4931417;28;20045;-54
2023/12/21 12:26:15;;;;;;;4.90;0.60;;;;;;;;;;4951881;28;20113;-52
2023/12/21 12:28:44;;;;;;;4.45;0.60;;;;;;;;;;4935983;28;20045;-48
2023/12/21 12:31:13;;;;;;;4.60;0.70;;;;;;;;;;4961263;28;20112;-50
2023/12/21 12:33:41;;;;;;;2.80;0.40;;;;;;;;;;4930569;28;20752;-51
2023/12/21 12:36:10;;;;;;;3.63;0.40;;;;;;;;;;4962422;28;20118;-50
2023/12/21 12:38:38;;;;;;;3.78;0.70;;;;;;;;;;4945258;28;20050;-52
2023/12/21 12:41:07;;;;;;;2.58;0.40;;;;;;;;;;4953516;28;20038;-51
2023/12/21 12:43:35;;;;;;;3.35;0.60;;;;;;;;;;4952750;28;20049;-51
2023/12/21 12:46:04;;;;;;;3.37;0.50;;;;;;;;;;4935941;28;20042;-53
2023/12/21 12:48:32;;;;;;;3.15;0.50;;;;;;;;;;4938022;28;21092;-50
2023/12/21 12:51:00;;;;;;;3.63;0.50;;;;;;;;;;4961235;28;20673;-52
2023/12/21 12:53:29;;;;;;;4.30;0.60;;;;;;;;;;4949367;28;20550;-50
2023/12/21 12:55:59;;;;;;;2.63;0.38;;;;;;;;;;4935050;28;20046;-52
2023/12/21 12:58:34;;;;;;;1.53;0.40;;;;;;;;;;4952067;28;20515;-54
2023/12/21 13:01:22;;;;;;;5.20;0.47;;;;;;;;;;4955505;28;20050;-50
2023/12/21 13:03:53;;;;;;;3.97;0.30;;;;;;;;;;4946418;28;20832;-52
2023/12/21 13:06:21;;;;;;;2.92;0.30;;;;;;;;;;4948087;28;20038;-51
2023/12/21 13:08:51;;;;;;;4.90;0.35;;;;;;;;;;4934507;28;20421;-48
2023/12/21 13:11:19;;;;;;;2.77;0.53;;;;;;;;;;4949368;28;20038;-49
2023/12/21 13:13:47;;;;;;;4.63;0.40;;;;;;;;;;4938118;28;20056;-51
2023/12/21 13:16:18;;;;;;;6.68;0.55;;;;;;;;;;4956216;28;20046;-49
2023/12/21 13:18:52;;;;;;;4.63;0.68;;;;;;;;;;4917445;28;20046;-52
2023/12/21 13:21:21;;;;;;;3.55;0.40;;;;;;;;;;4949207;28;20930;-51
2023/12/21 13:23:49;;;;;;;3.57;0.40;;;;;;;;;;4927008;28;20061;-50
2023/12/21 13:26:19;;;;;;;4.28;0.43;;;;;;;;;;4935971;28;20042;-48
2023/12/21 13:28:47;;;;;;;4.70;0.63;;;;;;;;;;4939979;28;20042;-48
2023/12/21 13:31:15;;;;;;;3.70;0.55;;;;;;;;;;4951197;28;21472;-50
2023/12/21 13:33:43;;;;;;;4.18;0.70;;;;;;;;;;4920748;28;20752;-48
2023/12/21 13:36:11;;;;;;;6.43;0.70;;;;;;;;;;4950630;28;20038;-47
2023/12/21 13:38:40;;;;;;;6.57;0.80;;;;;;;;;;4950969;28;20099;-48
2023/12/21 13:41:09;;;;;;;4.18;0.90;;;;;;;;;;4942316;28;20934;-52
2023/12/21 13:43:44;;;;;;;7.20;1.15;;;;;;;;;;4907176;28;20049;-53
2023/12/21 13:46:21;;;;;;;5.05;0.68;;;;;;;;;;4938254;28;20049;-48
2023/12/21 13:48:51;;;;;;;3.97;0.70;;;;;;;;;;4609926;28;10000423;-50
2023/12/21 13:51:36;;;;;;;5.80;0.77;;;;;;;;;;4932052;28;20436;-50
2023/12/21 13:54:04;;;;;;;5.30;0.80;;;;;;;;;;4947007;28;20042;-51
2023/12/21 13:56:32;;;;;;;4.32;0.60;;;;;;;;;;4934973;28;20140;-47
2023/12/21 13:59:01;;;;;;;9.32;0.98;;;;;;;;;;4944722;28;20050;-49
2023/12/21 14:01:29;;;;;;;8.53;1.43;;;;;;;;;;4941273;28;20045;-53
2023/12/21 14:03:57;;;;;;;5.88;1.15;;;;;;;;;;4937268;28;20053;-50
2023/12/21 14:06:25;;;;;;;7.82;0.90;;;;;;;;;;4922806;28;20590;-53
2023/12/21 14:08:53;;;;;;;5.65;0.77;;;;;;;;;;4959883;28;20500;-48
2023/12/21 14:11:21;;;;;;;4.55;0.50;;;;;;;;;;4944413;28;20050;-48
2023/12/21 14:13:48;;;;;;;7.77;1.00;;;;;;;;;;4953125;28;20049;-51
2023/12/21 14:16:19;;;;;;;8.80;1.00;;;;;;;;;;4601256;28;10000204;-49
2023/12/21 14:18:46;;;;;;;5.82;1.33;;;;;;;;;;4918426;28;20042;-47
2023/12/21 14:21:15;;;;;;;5.45;1.02;;;;;;;;;;4955872;28;20436;-53
2023/12/21 14:23:44;;;;;;;4.75;0.60;;;;;;;;;;4929618;28;20038;-48
2023/12/21 14:26:11;;;;;;;6.80;1.27;;;;;;;;;;4948722;28;20044;-47
2023/12/21 14:28:39;;;;;;;7.57;1.02;;;;;;;;;;4935137;28;20049;-52
2023/12/21 14:31:19;;;;;;;5.22;0.93;;;;;;;;;;4927931;28;20038;-51
2023/12/21 14:33:47;;;;;;;10.43;1.92;;;;;;;;;;4924489;28;20998;-49
2023/12/21 14:36:15;;;;;;;7.10;1.20;;;;;;;;;;4964005;28;20050;-49
2023/12/21 14:38:43;;;;;;;4.23;0.67;;;;;;;;;;4953491;28;20113;-52
2023/12/21 14:41:11;;;;;;;5.50;0.68;;;;;;;;;;4940778;28;20081;-49
2023/12/21 14:43:39;;;;;;;5.32;0.65;;;;;;;;;;4942164;28;20527;-48
2023/12/21 14:46:07;;;;;;;9.02;0.77;;;;;;;;;;4939723;28;20061;-48
2023/12/21 14:48:36;;;;;;;6.28;0.88;;;;;;;;;;4904455;28;20046;-47
2023/12/21 14:51:08;;;;;;;5.47;0.67;;;;;;;;;;4938168;28;20583;-49
2023/12/21 14:53:36;;;;;;;2.92;0.50;;;;;;;;;;4949576;28;20860;-49